createdAt,value
2018-08-09T00:01:46.408Z,2.07
2018-08-09T00:04:14.921Z,2.00
2018-08-09T00:06:43.429Z,1.70
2018-08-09T00:09:11.964Z,1.93
2018-08-09T00:11:40.753Z,1.77
2018-08-09T00:14:10.134Z,2.23
2018-08-09T00:16:38.826Z,1.80
2018-08-09T00:19:07.309Z,2.23
2018-08-09T00:21:35.801Z,1.90
2018-08-09T00:24:04.937Z,1.80
2018-08-09T00:26:33.568Z,2.00
2018-08-09T00:29:02.209Z,1.90
2018-08-09T00:31:30.742Z,1.83
2018-08-09T00:33:59.200Z,1.87
2018-08-09T00:36:28.192Z,2.17
2018-08-09T00:38:57.126Z,1.93
2018-08-09T00:41:25.917Z,2.10
2018-08-09T00:43:54.468Z,1.70
2018-08-09T00:46:23.196Z,2.20
2018-08-09T00:48:51.926Z,2.23
2018-08-09T00:51:20.636Z,2.20
2018-08-09T00:53:49.401Z,1.57
2018-08-09T00:56:18.048Z,1.90
2018-08-09T00:58:46.530Z,1.90
2018-08-09T01:01:15.014Z,1.57
2018-08-09T01:03:43.497Z,1.80
2018-08-09T01:06:11.946Z,2.00
2018-08-09T01:08:44.595Z,1.80
2018-08-09T01:11:13.062Z,2.00
2018-08-09T01:13:41.597Z,2.00
2018-08-09T01:16:10.365Z,1.60
2018-08-09T01:18:38.960Z,1.77
2018-08-09T01:21:07.823Z,1.90
2018-08-09T01:23:36.672Z,1.93
2018-08-09T01:26:05.333Z,2.07
2018-08-09T01:28:33.968Z,1.83
2018-08-09T01:31:02.792Z,1.80
2018-08-09T01:33:31.924Z,2.07
2018-08-09T01:36:00.662Z,1.90
2018-08-09T01:38:29.335Z,2.07
2018-08-09T01:40:57.926Z,2.30
2018-08-09T01:43:37.621Z,1.70
2018-08-09T01:46:06.252Z,2.10
2018-08-09T01:48:34.733Z,2.27
2018-08-09T01:51:03.249Z,2.00
2018-08-09T01:53:31.701Z,2.07
2018-08-09T01:56:00.326Z,2.13
2018-08-09T01:58:28.867Z,1.97
2018-08-09T02:00:57.607Z,2.37
2018-08-09T02:03:26.111Z,2.37
2018-08-09T02:05:54.568Z,2.10
2018-08-09T02:08:23.566Z,2.10
2018-08-09T02:10:52.020Z,2.00
2018-08-09T02:13:20.429Z,2.33
2018-08-09T02:15:50.282Z,2.07
2018-08-09T02:18:18.750Z,2.40
2018-08-09T02:20:47.204Z,2.60
2018-08-09T02:23:15.697Z,2.27
2018-08-09T02:25:44.306Z,2.50
2018-08-09T02:28:12.713Z,2.20
2018-08-09T02:30:41.367Z,2.10
2018-08-09T02:33:10.245Z,2.17
2018-08-09T02:35:38.920Z,2.17
2018-08-09T02:38:07.529Z,2.67
2018-08-09T02:40:36.018Z,2.27
2018-08-09T02:43:04.752Z,2.43
2018-08-09T02:45:33.322Z,2.70
2018-08-09T02:48:01.859Z,2.30
2018-08-09T02:50:30.308Z,2.20
2018-08-09T02:52:59.454Z,2.37
2018-08-09T02:55:28.142Z,2.93
2018-08-09T02:57:56.987Z,2.77
2018-08-09T03:00:25.549Z,2.30
2018-08-09T03:02:54.467Z,2.80
2018-08-09T03:05:22.902Z,2.20
2018-08-09T03:07:51.477Z,2.17
2018-08-09T03:10:20.233Z,2.30
2018-08-09T03:12:48.877Z,2.40
2018-08-09T03:15:17.446Z,2.20
2018-08-09T03:17:45.888Z,2.10
2018-08-09T03:20:14.505Z,2.20
2018-08-09T03:22:43.019Z,1.90
2018-08-09T03:25:11.531Z,2.10
2018-08-09T03:27:40.104Z,2.10
2018-08-09T03:30:08.636Z,2.33
2018-08-09T03:32:37.168Z,1.97
2018-08-09T03:35:05.790Z,2.10
2018-08-09T03:37:34.373Z,2.30
2018-08-09T03:40:02.908Z,2.40
2018-08-09T03:42:31.382Z,2.27
2018-08-09T03:44:59.861Z,2.23
2018-08-09T03:47:28.323Z,2.53
2018-08-09T03:49:57.220Z,2.13
2018-08-09T03:52:26.196Z,2.27
2018-08-09T03:54:54.709Z,3.00
2018-08-09T03:57:23.118Z,2.40
2018-08-09T03:59:51.673Z,2.43
2018-08-09T04:02:20.916Z,2.80
2018-08-09T04:04:49.387Z,2.10
2018-08-09T04:07:18.080Z,2.20
2018-08-09T04:09:46.700Z,2.40
2018-08-09T04:12:15.404Z,2.50
2018-08-09T04:14:43.932Z,2.30
2018-08-09T04:17:16.526Z,2.10
2018-08-09T04:19:45.108Z,2.70
2018-08-09T04:22:13.744Z,2.23
2018-08-09T04:24:42.233Z,2.20
2018-08-09T04:27:10.707Z,2.30
2018-08-09T04:29:39.269Z,2.27
2018-08-09T04:32:07.797Z,2.67
2018-08-09T04:34:36.251Z,2.80
2018-08-09T04:37:06.572Z,3.10
2018-08-09T04:39:35.038Z,2.77
2018-08-09T04:42:03.907Z,2.83
2018-08-09T04:44:32.307Z,2.30
2018-08-09T04:47:01.875Z,2.90
2018-08-09T04:49:30.951Z,2.77
2018-08-09T04:51:59.710Z,2.60
2018-08-09T04:54:28.248Z,3.00
2018-08-09T04:56:57.063Z,4.20
2018-08-09T04:59:25.574Z,2.97
2018-08-09T05:01:54.194Z,3.00
2018-08-09T05:04:22.621Z,2.77
2018-08-09T05:06:51.091Z,3.87
2018-08-09T05:09:19.724Z,2.73
2018-08-09T05:11:48.418Z,4.77
2018-08-09T05:14:16.821Z,3.80
2018-08-09T05:16:45.438Z,3.80
2018-08-09T05:19:13.981Z,3.60
2018-08-09T05:21:42.484Z,3.23
2018-08-09T05:24:11.100Z,3.33
2018-08-09T05:26:39.718Z,3.20
2018-08-09T05:29:08.252Z,3.07
2018-08-09T05:31:36.773Z,3.30
2018-08-09T05:34:05.260Z,2.93
2018-08-09T05:36:33.834Z,3.30
2018-08-09T05:39:02.360Z,2.63
2018-08-09T05:41:30.863Z,3.40
2018-08-09T05:43:59.882Z,3.40
2018-08-09T05:46:28.405Z,4.23
2018-08-09T05:48:56.998Z,3.17
2018-08-09T05:51:25.511Z,4.10
2018-08-09T05:53:54.011Z,3.63
2018-08-09T05:56:22.628Z,2.90
2018-08-09T05:58:51.002Z,4.00
2018-08-09T06:01:19.671Z,2.60
2018-08-09T06:03:48.213Z,2.63
2018-08-09T06:06:16.756Z,3.33
2018-08-09T06:08:45.217Z,3.20
2018-08-09T06:11:13.736Z,3.00
2018-08-09T06:13:42.248Z,3.17
2018-08-09T06:16:10.797Z,3.30
2018-08-09T06:18:39.673Z,3.07
2018-08-09T06:21:08.125Z,3.73
2018-08-09T06:23:36.651Z,3.10
2018-08-09T06:26:05.264Z,3.33
2018-08-09T06:28:33.721Z,3.33
2018-08-09T06:31:02.204Z,3.60
2018-08-09T06:33:30.919Z,4.20
2018-08-09T06:35:59.325Z,3.00
2018-08-09T06:38:27.839Z,3.30
2018-08-09T06:40:56.277Z,3.20
2018-08-09T06:43:24.925Z,4.27
2018-08-09T06:45:53.460Z,3.47
2018-08-09T06:48:22.007Z,3.53
2018-08-09T06:50:50.564Z,3.63
2018-08-09T06:53:19.053Z,3.13
2018-08-09T06:55:47.520Z,3.07
2018-08-09T06:58:16.001Z,3.30
2018-08-09T07:00:44.368Z,2.67
2018-08-09T07:03:12.843Z,3.07
2018-08-09T07:05:41.780Z,3.77
2018-08-09T07:08:10.304Z,3.47
2018-08-09T07:10:38.665Z,3.13
2018-08-09T07:13:07.224Z,4.37
2018-08-09T07:15:35.695Z,4.73
2018-08-09T07:18:04.216Z,2.93
2018-08-09T07:20:32.628Z,4.10
2018-08-09T07:23:01.163Z,4.17
2018-08-09T07:25:30.069Z,4.73
2018-08-09T07:27:58.493Z,4.40
2018-08-09T07:30:26.962Z,4.67
2018-08-09T07:32:55.505Z,4.00
2018-08-09T07:35:23.968Z,5.50
2018-08-09T07:37:52.587Z,4.10
2018-08-09T07:40:21.066Z,3.80
2018-08-09T07:42:49.547Z,4.17
2018-08-09T07:45:18.040Z,4.87
2018-08-09T07:47:46.526Z,4.23
2018-08-09T07:50:15.034Z,5.17
2018-08-09T07:52:43.460Z,4.37
2018-08-09T07:55:12.075Z,5.40
2018-08-09T07:57:40.748Z,4.67
2018-08-09T08:00:12.054Z,4.80
2018-08-09T08:02:41.018Z,5.20
2018-08-09T08:05:10.325Z,5.07
2018-08-09T08:07:39.028Z,4.97
2018-08-09T08:10:10.113Z,3.80
2018-08-09T08:12:39.260Z,4.60
2018-08-09T08:15:08.927Z,3.80
2018-08-09T08:17:37.924Z,5.47
2018-08-09T08:20:07.117Z,4.73
2018-08-09T08:22:35.756Z,5.03
2018-08-09T08:25:04.950Z,6.57
2018-08-09T08:27:33.508Z,4.20
2018-08-09T08:30:02.571Z,6.07
2018-08-09T08:32:31.270Z,7.00
2018-08-09T08:35:00.130Z,4.90
2018-08-09T08:37:28.690Z,5.87
2018-08-09T08:39:57.474Z,5.20
2018-08-09T08:42:26.192Z,5.83
2018-08-09T08:44:54.640Z,4.20
2018-08-09T08:47:23.139Z,3.53
2018-08-09T08:49:52.782Z,6.40
2018-08-09T08:52:23.543Z,5.87
2018-08-09T08:54:52.590Z,5.10
2018-08-09T08:57:21.864Z,4.63
2018-08-09T08:59:51.681Z,4.60
2018-08-09T09:02:20.349Z,4.33
2018-08-09T09:04:48.991Z,5.87
2018-08-09T09:10:03.435Z,5.53
2018-08-09T09:12:36.858Z,6.00
2018-08-09T09:15:08.516Z,5.20
2018-08-09T09:17:37.112Z,5.83
2018-08-09T09:20:10.894Z,5.90
2018-08-09T09:22:40.757Z,5.47
2018-08-09T09:25:10.580Z,5.37
2018-08-09T09:27:39.398Z,5.20
2018-08-09T09:30:12.822Z,6.23
2018-08-09T09:32:41.477Z,6.70
2018-08-09T09:35:10.890Z,5.27
2018-08-09T09:37:41.013Z,5.70
2018-08-09T09:40:10.501Z,7.00
2018-08-09T09:42:40.506Z,5.50
2018-08-09T09:45:10.194Z,5.60
2018-08-09T09:47:40.256Z,5.30
2018-08-09T09:50:09.885Z,4.30
2018-08-09T09:52:38.860Z,5.90
2018-08-09T09:55:07.446Z,4.80
2018-08-09T09:57:36.261Z,5.60
2018-08-09T10:00:06.097Z,6.13
2018-08-09T10:02:34.699Z,4.87
2018-08-09T10:05:03.442Z,5.20
2018-08-09T10:07:32.109Z,6.50
2018-08-09T10:10:00.744Z,6.43
2018-08-09T10:12:29.848Z,6.20
2018-08-09T10:15:00.162Z,6.73
2018-08-09T10:17:29.673Z,7.33
2018-08-09T10:19:58.289Z,6.70
2018-08-09T10:22:29.247Z,7.60
2018-08-09T10:24:58.967Z,8.13
2018-08-09T10:27:29.264Z,6.80
2018-08-09T10:30:07.936Z,7.43
2018-08-09T10:38:28.422Z,7.70
2018-08-09T10:41:02.477Z,7.30
2018-08-09T10:43:37.162Z,8.43
2018-08-09T10:46:09.573Z,10.03
2018-08-09T10:48:40.447Z,10.60
2018-08-09T10:51:08.997Z,10.23
2018-08-09T10:53:39.788Z,9.83
2018-08-09T10:56:11.361Z,9.60
2018-08-09T10:58:40.897Z,10.43
2018-08-09T11:01:09.444Z,11.40
2018-08-09T11:03:38.139Z,9.33
2018-08-09T11:06:10.545Z,8.83
2018-08-09T11:08:41.282Z,8.20
2018-08-09T11:11:16.620Z,10.20
2018-08-09T11:13:46.357Z,9.43
2018-08-09T11:16:15.890Z,10.60
2018-08-09T11:18:45.241Z,9.47
2018-08-09T11:21:14.196Z,13.10
2018-08-09T11:23:42.927Z,11.27
2018-08-09T11:26:12.608Z,10.73
2018-08-09T11:28:41.361Z,11.07
2018-08-09T11:31:10.109Z,9.40
2018-08-09T11:33:39.053Z,10.17
2018-08-09T11:36:10.798Z,9.97
2018-08-09T11:38:40.135Z,9.43
2018-08-09T11:41:10.997Z,9.20
2018-08-09T11:43:40.713Z,10.23
2018-08-09T11:46:14.194Z,9.07
2018-08-09T11:48:45.156Z,10.10
2018-08-09T11:51:14.939Z,8.33
2018-08-09T11:53:44.023Z,8.93
2018-08-09T11:56:12.690Z,9.43
2018-08-09T11:58:41.784Z,9.83
2018-08-09T12:01:10.497Z,9.23
2018-08-09T12:03:40.128Z,9.23
2018-08-09T12:06:08.860Z,10.20
2018-08-09T12:08:41.134Z,9.77
2018-08-09T12:11:10.281Z,9.43
2018-08-09T12:13:39.374Z,8.93
2018-08-09T12:16:08.429Z,8.23
2018-08-09T12:18:41.073Z,7.30
2018-08-09T12:21:09.709Z,7.33
2018-08-09T12:23:38.439Z,8.13
2018-08-09T12:26:09.713Z,8.80
2018-08-09T12:28:38.474Z,8.73
2018-08-09T12:31:13.261Z,8.77
2018-08-09T12:33:41.807Z,9.27
2018-08-09T12:36:10.642Z,7.60
2018-08-09T12:38:39.394Z,8.03
2018-08-09T12:41:09.409Z,8.03
2018-08-09T12:43:42.010Z,8.40
2018-08-09T12:46:12.060Z,9.27
2018-08-09T12:48:41.098Z,8.23
2018-08-09T12:51:10.910Z,7.77
2018-08-09T12:53:42.031Z,8.40
2018-08-09T12:56:10.764Z,6.83
2018-08-09T12:58:41.115Z,7.93
2018-08-09T13:01:10.302Z,6.43
2018-08-09T13:03:40.920Z,6.17
2018-08-09T13:06:10.507Z,6.67
2018-08-09T13:08:41.799Z,6.27
2018-08-09T13:11:43.793Z,5.40
2018-08-09T13:14:12.485Z,6.37
2018-08-09T13:16:43.681Z,6.63
2018-08-09T13:19:14.013Z,7.20
2018-08-09T13:21:42.865Z,6.90
2018-08-09T13:24:11.754Z,6.93
2018-08-09T13:26:42.300Z,7.33
2018-08-09T13:29:11.004Z,6.70
2018-08-09T13:31:39.820Z,7.07
2018-08-09T13:34:08.371Z,6.10
2018-08-09T13:36:37.125Z,6.83
2018-08-09T13:39:09.389Z,5.73
2018-08-09T13:41:38.083Z,6.70
2018-08-09T13:44:07.177Z,7.40
2018-08-09T13:46:35.812Z,7.70
2018-08-09T13:49:04.619Z,7.17
2018-08-09T13:51:33.375Z,7.70
2018-08-09T13:54:02.292Z,7.30
2018-08-09T13:56:30.881Z,8.97
2018-08-09T13:58:59.474Z,6.50
2018-08-09T14:01:28.125Z,7.40
2018-08-09T14:03:56.800Z,7.57
2018-08-09T14:06:25.535Z,7.07
2018-08-09T14:08:54.152Z,6.83
2018-08-09T14:11:22.638Z,7.90
2018-08-09T14:13:51.263Z,6.87
2018-08-09T14:16:20.280Z,7.13
2018-08-09T14:18:48.793Z,7.17
2018-08-09T14:21:17.305Z,7.23
2018-08-09T14:23:45.857Z,7.13
2018-08-09T14:26:14.442Z,6.17
2018-08-09T14:28:42.947Z,6.47
2018-08-09T14:31:11.368Z,6.73
2018-08-09T14:33:39.952Z,6.90
2018-08-09T14:36:08.376Z,6.90
2018-08-09T14:38:36.854Z,6.33
2018-08-09T14:41:05.348Z,6.60
2018-08-09T14:43:34.916Z,7.07
2018-08-09T14:46:08.702Z,6.83
2018-08-09T14:48:37.128Z,6.67
2018-08-09T14:51:05.897Z,7.63
2018-08-09T14:53:34.680Z,6.40
2018-08-09T14:56:03.297Z,7.10
2018-08-09T14:58:31.970Z,7.47
2018-08-09T15:01:00.580Z,6.70
2018-08-09T15:03:29.183Z,7.40
2018-08-09T15:06:01.293Z,6.37
2018-08-09T15:08:29.935Z,6.70
2018-08-09T15:10:58.336Z,6.43
2018-08-09T15:13:26.818Z,7.70
2018-08-09T15:15:55.248Z,6.77
2018-08-09T15:18:23.757Z,7.43
2018-08-09T15:20:52.230Z,7.17
2018-08-09T15:23:21.098Z,7.97
2018-08-09T15:25:49.499Z,6.43
2018-08-09T15:28:18.157Z,16.97
2018-08-09T15:30:46.624Z,7.67
2018-08-09T15:33:15.140Z,7.97
2018-08-09T15:35:43.750Z,7.40
2018-08-09T15:38:12.399Z,7.17
2018-08-09T15:40:40.873Z,8.77
2018-08-09T15:43:09.369Z,8.30
2018-08-09T15:45:37.789Z,6.23
2018-08-09T15:48:06.703Z,8.67
2018-08-09T15:50:35.181Z,8.27
2018-08-09T15:53:04.654Z,6.60
2018-08-09T15:55:33.062Z,5.70
2018-08-09T15:58:01.642Z,6.27
2018-08-09T16:00:30.367Z,9.13
2018-08-09T16:02:59.197Z,6.50
2018-08-09T16:05:28.119Z,6.67
2018-08-09T16:07:56.740Z,7.07
2018-08-09T16:10:25.258Z,8.17
2018-08-09T16:12:53.823Z,10.60
2018-08-09T16:15:22.313Z,11.53
2018-08-09T16:17:50.811Z,9.83
2018-08-09T16:20:19.772Z,10.37
2018-08-09T16:22:48.340Z,9.30
2018-08-09T16:25:18.172Z,6.90
2018-08-09T16:27:47.716Z,6.13
2018-08-09T16:30:18.312Z,5.03
2018-08-09T16:32:47.335Z,5.40
2018-08-09T16:35:15.842Z,4.73
2018-08-09T16:37:45.043Z,4.47
2018-08-09T16:40:21.978Z,4.60
2018-08-09T16:42:50.515Z,4.27
2018-08-09T16:45:20.011Z,4.40
2018-08-09T16:47:48.917Z,3.70
2018-08-09T16:50:19.444Z,3.10
2018-08-09T16:52:48.718Z,4.03
2018-08-09T16:55:18.011Z,5.00
2018-08-09T16:57:46.684Z,5.77
2018-08-09T17:00:24.380Z,7.93
2018-08-09T17:02:53.847Z,6.07
2018-08-09T17:05:23.696Z,5.00
2018-08-09T17:07:53.010Z,5.63
2018-08-09T17:10:22.656Z,9.67
2018-08-09T17:12:51.423Z,7.73
2018-08-09T17:15:22.669Z,6.03
2018-08-09T17:17:51.303Z,6.93
2018-08-09T17:20:23.472Z,7.83
2018-08-09T17:22:52.091Z,6.43
2018-08-09T17:25:20.814Z,6.77
2018-08-09T17:27:50.846Z,9.33
2018-08-09T17:30:24.026Z,9.83
2018-08-09T17:32:52.518Z,10.58
2018-08-09T17:35:21.220Z,9.77
2018-08-09T17:37:50.154Z,9.87
2018-08-09T17:40:24.375Z,8.80
2018-08-09T17:42:53.918Z,11.07
2018-08-09T17:45:31.584Z,10.20
2018-08-09T17:48:00.696Z,11.73
2018-08-09T17:50:29.223Z,8.03
2018-08-09T17:52:59.517Z,9.10
2018-08-09T17:55:28.055Z,7.77
2018-08-09T17:57:56.667Z,7.87
2018-08-09T18:00:26.498Z,8.10
2018-08-09T18:02:57.113Z,6.90
2018-08-09T18:05:25.813Z,7.40
2018-08-09T18:07:54.641Z,6.27
2018-08-09T18:10:27.365Z,6.43
2018-08-09T18:12:56.021Z,6.47
2018-08-09T18:15:25.670Z,5.43
2018-08-09T18:17:54.606Z,5.40
2018-08-09T18:20:26.307Z,5.60
2018-08-09T18:22:54.825Z,6.47
2018-08-09T18:25:30.199Z,5.63
2018-08-09T18:27:58.686Z,5.53
2018-08-09T18:30:27.193Z,5.73
2018-08-09T18:32:55.725Z,5.33
2018-08-09T18:35:24.351Z,5.13
2018-08-09T18:37:53.000Z,5.60
2018-08-09T18:40:23.809Z,5.17
2018-08-09T18:42:52.327Z,4.97
2018-08-09T18:45:21.422Z,5.43
2018-08-09T18:47:50.096Z,5.57
2018-08-09T18:50:26.478Z,4.90
2018-08-09T18:52:55.151Z,4.87
2018-08-09T18:55:23.622Z,4.80
2018-08-09T18:57:52.236Z,4.23
2018-08-09T19:00:22.650Z,5.90
2018-08-09T19:02:51.664Z,4.47
2018-08-09T19:05:20.173Z,4.35
2018-08-09T19:07:49.336Z,6.70
2018-08-09T19:10:20.528Z,11.50
2018-08-09T19:12:49.319Z,7.70
2018-08-09T19:15:18.061Z,6.00
2018-08-09T19:20:30.115Z,5.60
2018-08-09T19:23:00.062Z,5.53
2018-08-09T19:25:40.484Z,5.30
2018-08-09T19:28:09.001Z,5.22
2018-08-09T19:30:42.739Z,4.97
2018-08-09T19:33:11.370Z,4.17
2018-08-09T19:35:40.749Z,3.97
2018-08-09T19:38:10.409Z,4.53
2018-08-09T19:40:38.937Z,4.50
2018-08-09T19:43:07.441Z,4.60
2018-08-09T19:45:35.863Z,3.93
2018-08-09T19:48:04.633Z,3.90
2018-08-09T19:50:33.146Z,4.70
2018-08-09T19:53:01.747Z,5.17
2018-08-09T19:55:30.477Z,4.10
2018-08-09T19:57:59.919Z,3.90
2018-08-09T20:00:30.212Z,4.07
2018-08-09T20:02:58.698Z,3.93
2018-08-09T20:05:27.240Z,4.73
2018-08-09T20:07:55.934Z,4.57
2018-08-09T20:10:24.535Z,4.03
2018-08-09T20:12:53.092Z,7.20
2018-08-09T20:15:23.446Z,5.90
2018-08-09T20:17:52.625Z,4.57
2018-08-09T20:20:25.189Z,5.17
2018-08-09T20:22:53.974Z,5.40
2018-08-09T20:25:22.487Z,4.20
2018-08-09T20:27:51.000Z,5.40
2018-08-09T20:30:20.006Z,5.13
2018-08-09T20:32:48.958Z,4.57
2018-08-09T20:35:19.738Z,5.30
2018-08-09T20:37:48.765Z,4.60
2018-08-09T20:40:18.020Z,5.10
2018-08-09T20:42:47.707Z,4.57
2018-08-09T20:45:17.920Z,4.10
2018-08-09T20:47:46.472Z,5.20
2018-08-09T20:50:17.588Z,4.20
2018-08-09T20:52:47.600Z,4.10
2018-08-09T20:55:16.194Z,3.83
2018-08-09T20:57:45.542Z,4.27
2018-08-09T21:00:21.960Z,3.40
2018-08-09T21:02:51.957Z,3.03
2018-08-09T21:05:24.861Z,2.90
2018-08-09T21:07:54.319Z,2.90
2018-08-09T21:10:22.933Z,2.27
2018-08-09T21:12:51.529Z,2.27
2018-08-09T21:15:20.557Z,2.10
2018-08-09T21:17:49.250Z,2.10
2018-08-09T21:20:18.334Z,2.43
2018-08-09T21:22:50.275Z,2.20
2018-08-09T21:25:19.005Z,2.10
2018-08-09T21:27:48.126Z,2.03
2018-08-09T21:30:19.886Z,2.00
2018-08-09T21:32:49.546Z,1.70
2018-08-09T21:35:19.013Z,2.30
2018-08-09T21:37:48.380Z,2.10
2018-08-09T21:40:16.947Z,1.93
2018-08-09T21:42:45.641Z,1.90
2018-08-09T21:45:15.769Z,1.47
2018-08-09T21:47:44.285Z,1.83
2018-08-09T21:50:16.391Z,1.63
2018-08-09T21:52:44.916Z,1.20
2018-08-09T21:55:18.428Z,1.40
2018-08-09T21:57:47.451Z,1.60
2018-08-09T22:01:00.367Z,1.33
2018-08-09T22:03:34.065Z,1.50
2018-08-09T22:06:07.816Z,1.47
2018-08-09T22:08:41.607Z,1.43
2018-08-09T22:11:17.516Z,1.30
2018-08-09T22:13:51.444Z,1.17
2018-08-09T22:16:25.401Z,1.20
2018-08-09T22:18:59.070Z,1.40
2018-08-09T22:22:34.418Z,1.17
2018-08-09T22:25:02.899Z,1.20
2018-08-09T22:27:31.480Z,1.27
2018-08-09T22:30:00.028Z,1.30
2018-08-09T22:32:28.622Z,1.00
2018-08-09T22:34:57.277Z,1.00
2018-08-09T22:37:26.217Z,0.90
2018-08-09T22:39:54.832Z,0.90
2018-08-09T22:42:23.364Z,1.10
2018-08-09T22:44:52.080Z,1.00
2018-08-09T22:47:20.692Z,1.10
2018-08-09T22:49:49.380Z,1.20
2018-08-09T22:52:17.998Z,1.00
2018-08-09T22:54:46.508Z,1.07
2018-08-09T22:57:15.116Z,1.03
2018-08-09T22:59:43.713Z,1.00
2018-08-09T23:02:12.197Z,0.90
2018-08-09T23:04:40.693Z,0.70
2018-08-09T23:07:09.358Z,0.80
2018-08-09T23:09:37.994Z,0.70
2018-08-09T23:12:06.650Z,0.70
2018-08-09T23:14:35.252Z,0.70
2018-08-09T23:17:03.707Z,0.80
2018-08-09T23:19:32.274Z,0.70
2018-08-09T23:22:00.823Z,0.87
2018-08-09T23:24:29.408Z,1.00
2018-08-09T23:26:58.090Z,0.90
2018-08-09T23:29:26.556Z,0.87
2018-08-09T23:31:54.924Z,0.60
2018-08-09T23:34:23.392Z,0.73
2018-08-09T23:36:51.920Z,0.57
2018-08-09T23:39:20.339Z,0.70
2018-08-09T23:41:48.741Z,0.60
2018-08-09T23:44:17.212Z,0.73
2018-08-09T23:46:45.709Z,0.80
2018-08-09T23:49:14.272Z,0.60
2018-08-09T23:51:42.863Z,0.70
2018-08-09T23:54:11.342Z,0.60
2018-08-09T23:56:39.850Z,0.80
2018-08-09T23:59:08.346Z,0.60
